首页
METAR-TAF:

METAR-TAF

机场 :

Middle Peninsula Regional Airport

West Point, 弗吉尼亚州, 美国

纬度: 37-31-16N, 经度: 076-45-52W, 海拔: 7米

当前天气观测

该预报发布于19分钟前的16:35 UTC
风速5节,风向东转东北
温度 23°C
湿度 94%
气压 1021 hPa
能見度: 16.1公里
散云层高于1000英尺
阴天层高于3000英尺

METAR: KFYJ 231635Z AUTO 07005KT 10SM SCT010 OVC030 23/22 A3014 RMK AO1 T02270220

时间: 12:54 (16:54 UTC)


TAF: 丢失

超过4000个机场的气象观测和天气预报(METAR&TAF报告)。

可查询的气象台以黄色和红色小点在地图上表示。

将鼠标移到小点上方,可查看气象台名称。

然后点击查看天气观测和预报。

如需切换地图:点击带黑十字的绿色按钮放大地图;点击带横线的绿色按钮缩小地图;或者点击绿色箭头查看邻近地区的地图。


METAR-TAF: